Time;durP1;ratioP1;P1;durP2;ratioP2;P2;SDS_P1;SDS_P2;PMS_P1;PMS_P2;Temp;Humidity;BMP_temperature;BMP_pressure;BME280_temperature;BME280_humidity;BME280_pressure;Samples;Min_cycle;Max_cycle;Signal;HPM_P1;HPM_P2
2022/09/30 00:00:45;;;;;;;;;;;17.90;59.60;;;;;;5072981;28;19927;-66
2022/09/30 00:03:10;;;;;;;;;;;18.00;59.60;;;;;;5055198;28;19920;-66
2022/09/30 00:05:36;;;;;;;;;;;17.90;59.60;;;;;;5071432;28;19953;-67
2022/09/30 00:08:01;;;;;;;;;;;18.00;59.60;;;;;;5071405;28;19929;-66
2022/09/30 00:10:27;;;;;;;;;;;17.90;59.60;;;;;;5071609;28;19920;-66
2022/09/30 00:12:52;;;;;;;;;;;17.90;59.60;;;;;;5071408;28;19924;-67
2022/09/30 00:15:19;;;;;;;;;;;17.90;59.60;;;;;;5071298;28;19928;-66
2022/09/30 00:17:44;;;;;;;;;;;17.90;59.60;;;;;;5071632;28;19943;-66
2022/09/30 00:20:10;;;;;;;;;;;17.90;59.60;;;;;;5071548;28;20357;-66
2022/09/30 00:22:35;;;;;;;;;;;17.90;59.60;;;;;;5072592;28;19927;-66
2022/09/30 00:25:01;;;;;;;;;;;17.90;59.60;;;;;;5071419;28;19931;-66
2022/09/30 00:27:27;;;;;;;;;;;17.90;59.60;;;;;;5071472;28;19921;-67
2022/09/30 00:29:52;;;;;;;;;;;17.90;59.60;;;;;;5072311;28;20296;-66
2022/09/30 00:32:18;;;;;;;;;;;17.90;59.60;;;;;;5105013;28;20007;-66
2022/09/30 00:34:44;;;;;;;;;;;17.80;59.60;;;;;;5071351;28;19920;-66
2022/09/30 00:37:13;;;;;;;;;;;17.90;59.60;;;;;;5072467;28;19924;-66
2022/09/30 00:39:39;;;;;;;;;;;17.90;59.60;;;;;;5071405;28;19927;-66
2022/09/30 00:42:05;;;;;;;;;;;17.90;59.60;;;;;;5070906;28;20015;-66
2022/09/30 00:44:49;;;;;;;;;;;17.90;59.60;;;;;;5072309;28;20281;-66
2022/09/30 00:47:35;;;;;;;;;;;17.80;59.60;;;;;;5070960;28;20011;-66
2022/09/30 00:50:10;;;;;;;;;;;17.80;59.60;;;;;;5104595;28;19928;-66
2022/09/30 00:52:36;;;;;;;;;;;17.80;59.60;;;;;;5070858;28;19925;-67
2022/09/30 00:55:03;;;;;;;;;;;17.90;59.60;;;;;;5072467;28;19946;-67
2022/09/30 00:57:29;;;;;;;;;;;17.80;59.60;;;;;;5070940;28;20010;-66
2022/09/30 00:59:55;;;;;;;;;;;17.80;59.60;;;;;;5071146;28;20016;-66
2022/09/30 01:02:21;;;;;;;;;;;17.80;59.60;;;;;;5072064;28;19928;-66
2022/09/30 01:04:46;;;;;;;;;;;17.80;59.60;;;;;;5072110;28;19920;-66
2022/09/30 01:07:13;;;;;;;;;;;17.80;59.60;;;;;;5071918;28;19920;-66
2022/09/30 01:09:40;;;;;;;;;;;17.80;60.20;;;;;;5071494;28;19932;-66
2022/09/30 01:12:10;;;;;;;;;;;17.80;59.60;;;;;;5074748;28;19956;-66
2022/09/30 01:14:37;;;;;;;;;;;17.80;59.50;;;;;;5076156;28;19924;-66
2022/09/30 01:22:39;;;;;;;;;;;17.80;59.50;;;;;;5127006;27;1880537;-65
2022/09/30 01:25:25;;;;;;;;;;;17.80;59.50;;;;;;5174817;27;20298;-65
2022/09/30 01:27:57;;;;;;;;;;;17.70;59.50;;;;;;5174316;27;19918;-67
2022/09/30 01:30:43;;;;;;;;;;;17.70;59.50;;;;;;5174279;27;19922;-66
2022/09/30 01:33:28;;;;;;;;;;;17.70;59.50;;;;;;5192872;27;20348;-66
2022/09/30 01:36:13;;;;;;;;;;;17.70;59.50;;;;;;5174443;27;19919;-66
2022/09/30 01:38:49;;;;;;;;;;;17.70;59.40;;;;;;5173845;27;19936;-66
2022/09/30 01:46:48;;;;;;;;;;;17.70;59.50;;;;;;5089966;28;19913;-65
2022/09/30 01:49:26;;;;;;;;;;;17.70;59.40;;;;;;5088540;28;19920;-65
2022/09/30 01:52:11;;;;;;;;;;;17.70;59.40;;;;;;5089858;28;19982;-65
2022/09/30 01:57:27;;;;;;;;;;;17.70;59.50;;;;;;5110318;27;20394;-65
2022/09/30 01:59:55;;;;;;;;;;;17.60;59.40;;;;;;5110223;28;19919;-66
2022/09/30 02:02:25;;;;;;;;;;;17.70;59.50;;;;;;5109213;28;19924;-66
2022/09/30 02:04:52;;;;;;;;;;;17.70;59.40;;;;;;5108840;28;20006;-66
2022/09/30 02:07:23;;;;;;;;;;;17.60;59.40;;;;;;5108890;28;20611;-67
2022/09/30 02:09:56;;;;;;;;;;;17.60;60.10;;;;;;5110053;28;20272;-66
2022/09/30 02:12:23;;;;;;;;;;;17.60;59.40;;;;;;5110026;28;19933;-66
2022/09/30 02:14:55;;;;;;;;;;;17.70;59.50;;;;;;5108889;28;20478;-66
2022/09/30 02:17:26;;;;;;;;;;;17.60;59.40;;;;;;5108704;28;19920;-67
2022/09/30 02:20:00;;;;;;;;;;;17.60;59.40;;;;;;5108869;28;19929;-66
2022/09/30 02:22:29;;;;;;;;;;;17.60;59.40;;;;;;5108600;28;19999;-66
2022/09/30 02:24:56;;;;;;;;;;;17.60;59.40;;;;;;5109674;28;20379;-66
2022/09/30 02:27:26;;;;;;;;;;;17.60;59.40;;;;;;5109928;28;19920;-66
2022/09/30 02:29:55;;;;;;;;;;;17.90;59.10;;;;;;5108680;28;19939;-66
2022/09/30 02:32:38;;;;;;;;;;;18.50;58.10;;;;;;5109751;28;20386;-66
2022/09/30 02:35:07;;;;;;;;;;;19.20;56.60;;;;;;5109506;28;19919;-66
2022/09/30 02:37:37;;;;;;;;;;;19.90;54.90;;;;;;5108596;28;19920;-66
2022/09/30 02:40:14;;;;;;;;;;;20.70;53.20;;;;;;5108051;28;19924;-66
2022/09/30 02:42:42;;;;;;;;;;;21.60;51.30;;;;;;5109601;28;19924;-66
2022/09/30 02:45:09;;;;;;;;;;;22.50;49.40;;;;;;5109367;28;19920;-66
2022/09/30 02:47:55;;;;;;;;;;;23.20;47.80;;;;;;5108381;28;19942;-66
2022/09/30 02:50:32;;;;;;;;;;;23.80;46.60;;;;;;5108960;28;19924;-66
2022/09/30 02:53:17;;;;;;;;;;;24.30;45.70;;;;;;5109219;28;20015;-66
2022/09/30 02:56:03;;;;;;;;;;;24.70;45.50;;;;;;5107435;28;19949;-66
2022/09/30 02:58:29;;;;;;;;;;;25.00;44.20;;;;;;5142288;27;20261;-66
2022/09/30 03:00:55;;;;;;;;;;;25.30;43.60;;;;;;5107756;28;19973;-67
2022/09/30 03:03:26;;;;;;;;;;;25.60;43.20;;;;;;5108062;28;19959;-66
2022/09/30 03:05:52;;;;;;;;;;;25.80;42.90;;;;;;5108939;28;19920;-67
2022/09/30 03:08:18;;;;;;;;;;;25.90;42.50;;;;;;5097106;28;19920;-67
2022/09/30 03:10:43;;;;;;;;;;;26.00;42.40;;;;;;5095340;28;19971;-66
2022/09/30 03:13:23;;;;;;;;;;;26.10;42.30;;;;;;5095310;28;20345;-66
2022/09/30 03:29:42;;;;;;;;;;;26.50;41.40;;;;;;5110339;27;19912;-66
2022/09/30 03:32:28;;;;;;;;;;;26.50;41.30;;;;;;5108995;28;20203;-65
2022/09/30 03:37:44;;;;;;;;;;;26.50;41.40;;;;;;5129735;27;1862638;-65
2022/09/30 03:40:17;;;;;;;;;;;26.40;41.30;;;;;;5174616;27;20026;-66
2022/09/30 03:42:44;;;;;;;;;;;26.40;41.40;;;;;;5174575;27;19969;-66
2022/09/30 03:45:15;;;;;;;;;;;26.30;41.40;;;;;;5174742;27;20286;-65
2022/09/30 03:47:43;;;;;;;;;;;26.30;41.50;;;;;;5174566;27;19923;-65
2022/09/30 03:50:09;;;;;;;;;;;26.20;41.60;;;;;;5174628;27;19919;-65
2022/09/30 03:52:35;;;;;;;;;;;26.10;41.70;;;;;;5174486;27;20378;-65
2022/09/30 03:55:02;;;;;;;;;;;26.00;41.80;;;;;;5174131;27;19943;-65
2022/09/30 03:57:28;;;;;;;;;;;25.90;41.80;;;;;;5173974;27;19923;-65
2022/09/30 03:59:56;;;;;;;;;;;25.90;42.00;;;;;;5174045;27;19919;-66
2022/09/30 04:02:22;;;;;;;;;;;25.80;41.90;;;;;;5174225;27;20327;-66
2022/09/30 04:04:47;;;;;;;;;;;25.70;42.00;;;;;;5174325;27;19918;-66
2022/09/30 04:07:13;;;;;;;;;;;25.60;42.10;;;;;;5173841;27;20021;-66
2022/09/30 04:09:38;;;;;;;;;;;25.50;42.20;;;;;;5173919;27;19929;-66
2022/09/30 04:12:04;;;;;;;;;;;25.40;42.30;;;;;;5192494;27;20033;-66
2022/09/30 04:14:30;;;;;;;;;;;25.30;42.50;;;;;;5174023;27;19925;-66
2022/09/30 04:16:56;;;;;;;;;;;25.20;42.50;;;;;;5173781;27;20547;-67
2022/09/30 04:19:21;;;;;;;;;;;25.30;42.60;;;;;;5174005;27;20354;-66
2022/09/30 04:21:47;;;;;;;;;;;25.40;42.50;;;;;;5192499;27;20398;-66
2022/09/30 04:24:12;;;;;;;;;;;25.50;42.10;;;;;;5173899;27;19919;-66
2022/09/30 04:26:38;;;;;;;;;;;25.70;41.80;;;;;;5192329;27;20154;-66
2022/09/30 04:29:03;;;;;;;;;;;25.90;41.60;;;;;;5192245;27;20519;-66
2022/09/30 04:31:29;;;;;;;;;;;26.00;41.30;;;;;;5173681;27;20013;-66
2022/09/30 04:33:56;;;;;;;;;;;26.20;41.00;;;;;;5192264;27;19933;-65
2022/09/30 04:36:21;;;;;;;;;;;26.30;40.70;;;;;;5191872;27;19930;-66
2022/09/30 04:38:47;;;;;;;;;;;26.40;40.60;;;;;;5173238;27;19918;-66
2022/09/30 04:41:14;;;;;;;;;;;26.40;40.40;;;;;;5173557;27;19967;-65
2022/09/30 04:43:45;;;;;;;;;;;26.40;40.30;;;;;;5192235;27;20431;-66
2022/09/30 04:46:11;;;;;;;;;;;26.50;40.40;;;;;;5192159;27;20273;-66
2022/09/30 04:48:36;;;;;;;;;;;26.40;40.40;;;;;;5161057;27;19918;-66
2022/09/30 04:51:02;;;;;;;;;;;26.30;40.50;;;;;;5177832;27;19919;-66
2022/09/30 04:53:28;;;;;;;;;;;26.20;40.50;;;;;;5159469;27;19919;-66
2022/09/30 04:55:57;;;;;;;;;;;26.10;40.70;;;;;;5159117;27;19965;-66
2022/09/30 04:58:23;;;;;;;;;;;26.00;40.90;;;;;;5158882;27;20009;-66
2022/09/30 05:00:49;;;;;;;;;;;25.90;41.00;;;;;;5177678;27;19930;-66
2022/09/30 05:03:14;;;;;;;;;;;25.70;41.10;;;;;;5177594;27;19919;-65
2022/09/30 05:05:42;;;;;;;;;;;25.60;41.30;;;;;;5177523;27;20409;-66
2022/09/30 05:08:08;;;;;;;;;;;25.50;41.40;;;;;;5159139;27;19918;-66
2022/09/30 05:10:33;;;;;;;;;;;25.40;41.60;;;;;;5159128;27;19963;-66
2022/09/30 05:12:59;;;;;;;;;;;25.30;41.70;;;;;;5177394;27;20392;-66
2022/09/30 05:15:25;;;;;;;;;;;25.20;41.70;;;;;;5158549;27;19919;-66
2022/09/30 05:17:51;;;;;;;;;;;25.10;41.90;;;;;;5177544;27;19996;-66
2022/09/30 05:20:16;;;;;;;;;;;25.10;42.00;;;;;;5158892;27;20272;-66
2022/09/30 05:22:42;;;;;;;;;;;25.10;42.10;;;;;;5150583;27;19919;-66
2022/09/30 05:25:08;;;;;;;;;;;25.00;42.00;;;;;;5156313;27;19923;-66
2022/09/30 05:27:33;;;;;;;;;;;25.00;42.00;;;;;;5152079;27;19919;-66
2022/09/30 05:29:59;;;;;;;;;;;25.00;41.90;;;;;;5156612;27;19925;-66
2022/09/30 05:32:24;;;;;;;;;;;25.10;41.80;;;;;;5139472;27;19926;-66
2022/09/30 05:34:50;;;;;;;;;;;25.20;41.80;;;;;;5155876;27;19919;-66
2022/09/30 05:37:15;;;;;;;;;;;25.20;41.60;;;;;;5160916;27;19951;-66
2022/09/30 05:39:41;;;;;;;;;;;25.20;41.50;;;;;;5175921;27;19918;-66
2022/09/30 05:42:07;;;;;;;;;;;25.30;41.50;;;;;;5176856;27;20389;-66
2022/09/30 05:44:33;;;;;;;;;;;25.30;41.40;;;;;;5176816;27;19919;-66
2022/09/30 05:46:58;;;;;;;;;;;25.40;41.30;;;;;;5158056;27;19923;-66
2022/09/30 05:49:24;;;;;;;;;;;25.50;41.20;;;;;;5141448;27;20012;-66
2022/09/30 05:51:50;;;;;;;;;;;25.50;41.10;;;;;;5139258;27;20423;-64
2022/09/30 05:54:15;;;;;;;;;;;25.50;41.00;;;;;;5153910;27;20013;-64
2022/09/30 05:56:41;;;;;;;;;;;25.20;41.10;;;;;;5152109;27;19934;-64
2022/09/30 05:59:06;;;;;;;;;;;24.90;41.30;;;;;;5138061;27;19927;-64
2022/09/30 06:01:32;;;;;;;;;;;24.70;41.70;;;;;;5136908;27;19922;-64
2022/09/30 06:03:58;;;;;;;;;;;24.50;42.70;;;;;;5135115;27;19919;-64
2022/09/30 06:06:23;;;;;;;;;;;24.40;42.10;;;;;;5154563;27;20052;-64
2022/09/30 06:08:49;;;;;;;;;;;24.30;42.30;;;;;;5154740;27;19977;-64
2022/09/30 06:11:16;;;;;;;;;;;24.30;43.10;;;;;;5158900;27;19973;-65
2022/09/30 06:13:43;;;;;;;;;;;24.40;42.40;;;;;;5151238;27;19919;-65
2022/09/30 06:16:09;;;;;;;;;;;24.40;42.20;;;;;;5154099;27;20014;-65
2022/09/30 06:18:35;;;;;;;;;;;24.30;42.10;;;;;;5150003;27;19960;-66
2022/09/30 06:21:02;;;;;;;;;;;24.30;42.20;;;;;;5154191;27;19976;-67
2022/09/30 06:23:29;;;;;;;;;;;24.40;41.90;;;;;;5142057;27;19926;-66
2022/09/30 06:25:55;;;;;;;;;;;24.60;41.70;;;;;;5140272;27;19925;-64
2022/09/30 06:28:21;;;;;;;;;;;24.70;41.50;;;;;;5161975;27;19919;-65
2022/09/30 06:30:46;;;;;;;;;;;24.70;41.30;;;;;;5131774;27;20519;-65
2022/09/30 06:33:12;;;;;;;;;;;24.70;41.30;;;;;;5147485;27;19923;-64
2022/09/30 06:35:40;;;;;;;;;;;24.50;41.30;;;;;;5127626;27;19923;-64
2022/09/30 06:38:06;;;;;;;;;;;24.30;41.40;;;;;;5110248;27;19924;-65
2022/09/30 06:40:32;;;;;;;;;;;24.10;41.80;;;;;;5112521;27;19924;-65
2022/09/30 06:42:58;;;;;;;;;;;23.90;42.00;;;;;;5114217;27;20002;-65
2022/09/30 06:45:24;;;;;;;;;;;23.70;42.30;;;;;;5116178;27;19919;-65
2022/09/30 06:47:50;;;;;;;;;;;23.70;42.60;;;;;;5114257;27;19930;-64
2022/09/30 06:50:16;;;;;;;;;;;23.70;42.70;;;;;;5115743;27;20414;-66
2022/09/30 06:52:42;;;;;;;;;;;23.50;42.70;;;;;;5112746;27;20534;-66
2022/09/30 06:55:08;;;;;;;;;;;23.70;42.90;;;;;;5109882;27;19956;-66
2022/09/30 06:57:34;;;;;;;;;;;23.90;42.40;;;;;;5108868;27;20436;-67
2022/09/30 07:00:00;;;;;;;;;;;23.90;42.10;;;;;;5122289;27;19928;-66
2022/09/30 07:02:28;;;;;;;;;;;23.80;42.40;;;;;;5115103;27;19919;-67
2022/09/30 07:04:53;;;;;;;;;;;24.00;42.50;;;;;;5112886;27;19926;-66
2022/09/30 07:07:20;;;;;;;;;;;24.60;41.90;;;;;;5109025;27;19927;-67
2022/09/30 07:09:46;;;;;;;;;;;25.10;41.20;;;;;;5110159;27;19946;-66
2022/09/30 07:12:12;;;;;;;;;;;25.40;40.70;;;;;;5113491;27;20477;-65
2022/09/30 07:14:37;;;;;;;;;;;25.30;40.50;;;;;;5115478;27;19931;-65
2022/09/30 07:17:04;;;;;;;;;;;24.90;41.10;;;;;;5113352;27;19920;-66
2022/09/30 07:19:31;;;;;;;;;;;24.50;41.50;;;;;;5112573;27;19955;-65
2022/09/30 07:22:26;;;;;;;;;;;24.30;42.00;;;;;;5109559;27;20034;-67
2022/09/30 07:24:43;;;;;;;;;;;24.10;42.50;;;;;;5110750;27;19999;-67
2022/09/30 07:27:08;;;;;;;;;;;23.90;42.70;;;;;;5118536;27;19938;-66
2022/09/30 07:29:34;;;;;;;;;;;23.70;43.00;;;;;;5111760;27;19927;-65
2022/09/30 07:31:59;;;;;;;;;;;23.60;43.50;;;;;;5111812;28;20354;-65
2022/09/30 07:34:25;;;;;;;;;;;23.40;43.90;;;;;;5114701;28;19928;-65
2022/09/30 07:36:51;;;;;;;;;;;23.20;44.40;;;;;;5133449;27;20618;-67
2022/09/30 07:39:16;;;;;;;;;;;23.10;44.60;;;;;;5139922;27;20067;-67
2022/09/30 07:41:43;;;;;;;;;;;23.10;44.80;;;;;;5136272;27;20300;-67
2022/09/30 07:44:13;;;;;;;;;;;23.10;44.80;;;;;;5143192;27;19931;-67
2022/09/30 07:46:39;;;;;;;;;;;23.20;44.80;;;;;;5142885;27;20019;-66
2022/09/30 07:49:06;;;;;;;;;;;23.20;44.70;;;;;;5110622;27;19929;-67
2022/09/30 07:51:33;;;;;;;;;;;23.10;44.70;;;;;;5128874;27;20548;-67
2022/09/30 07:54:01;;;;;;;;;;;22.90;45.00;;;;;;5127765;27;20382;-67
2022/09/30 07:56:27;;;;;;;;;;;22.90;45.30;;;;;;5151212;27;20295;-67
2022/09/30 07:58:54;;;;;;;;;;;22.70;45.30;;;;;;5142752;27;19923;-66
2022/09/30 08:01:20;;;;;;;;;;;22.70;45.80;;;;;;5129900;27;19923;-67
2022/09/30 08:03:45;;;;;;;;;;;22.60;45.60;;;;;;5126445;27;19979;-67
2022/09/30 08:06:13;;;;;;;;;;;22.40;45.90;;;;;;5125581;27;19974;-68
2022/09/30 08:08:38;;;;;;;;;;;22.30;46.10;;;;;;5149321;27;21063;-69
2022/09/30 08:11:05;;;;;;;;;;;22.20;46.50;;;;;;5128736;27;20042;-69
2022/09/30 08:13:31;;;;;;;;;;;22.00;46.80;;;;;;5136457;27;19961;-68
2022/09/30 08:15:56;;;;;;;;;;;21.90;46.90;;;;;;5149118;27;20318;-69
2022/09/30 08:18:22;;;;;;;;;;;21.80;47.20;;;;;;5153874;27;19979;-68
2022/09/30 08:20:47;;;;;;;;;;;21.80;47.40;;;;;;5150567;27;19929;-69
2022/09/30 08:23:13;;;;;;;;;;;21.70;47.60;;;;;;5137559;27;19919;-68
2022/09/30 08:25:38;;;;;;;;;;;21.70;47.90;;;;;;5157243;27;19977;-68
2022/09/30 08:28:04;;;;;;;;;;;21.60;48.10;;;;;;5157930;27;19930;-69
2022/09/30 08:30:29;;;;;;;;;;;21.50;48.30;;;;;;5154643;27;19923;-67
2022/09/30 08:32:56;;;;;;;;;;;21.50;48.50;;;;;;5139038;27;20426;-67
2022/09/30 08:35:22;;;;;;;;;;;21.40;48.60;;;;;;5157563;27;20666;-67
2022/09/30 08:37:50;;;;;;;;;;;21.50;48.70;;;;;;5157607;27;20606;-67
2022/09/30 08:40:18;;;;;;;;;;;21.40;48.70;;;;;;5140175;27;19941;-68
2022/09/30 08:42:55;;;;;;;;;;;21.40;48.80;;;;;;5152931;27;20328;-67
2022/09/30 08:50:52;;;;;;;;;;;21.30;49.00;;;;;;5049094;28;19924;-65
2022/09/30 08:53:23;;;;;;;;;;;21.30;49.10;;;;;;5047753;28;19929;-65
2022/09/30 08:55:49;;;;;;;;;;;21.30;49.10;;;;;;5037991;28;19927;-64
2022/09/30 08:58:21;;;;;;;;;;;21.20;49.20;;;;;;5035004;28;19952;-66
2022/09/30 09:00:47;;;;;;;;;;;21.20;49.60;;;;;;5035836;28;19928;-66
2022/09/30 09:03:13;;;;;;;;;;;21.10;50.20;;;;;;5038263;28;19927;-66
2022/09/30 09:08:48;;;;;;;;;;;21.10;51.30;;;;;;5054381;28;19925;-66
2022/09/30 09:13:59;;;;;;;;;;;21.00;51.00;;;;;;5076932;27;20845;-66
2022/09/30 09:16:30;;;;;;;;;;;21.00;51.00;;;;;;5097206;28;19924;-67
2022/09/30 09:18:58;;;;;;;;;;;21.00;51.60;;;;;;5059888;28;19965;-66
2022/09/30 09:21:44;;;;;;;;;;;20.90;51.50;;;;;;5095341;28;20543;-70
2022/09/30 09:24:13;;;;;;;;;;;20.90;51.60;;;;;;5071322;28;20020;-65
2022/09/30 09:26:38;;;;;;;;;;;20.90;52.10;;;;;;5070221;28;19931;-67
2022/09/30 09:29:10;;;;;;;;;;;20.90;52.10;;;;;;5069326;28;19924;-68
2022/09/30 09:31:36;;;;;;;;;;;20.80;52.60;;;;;;5105557;28;19927;-69
2022/09/30 09:34:10;;;;;;;;;;;20.80;53.00;;;;;;5070830;28;19928;-67
2022/09/30 09:47:31;;;;;;;;;;;20.80;53.10;;;;;;5056506;28;19953;-65
2022/09/30 09:55:21;;;;;;;;;;;20.70;53.10;;;;;;5075877;27;20429;-66
2022/09/30 09:57:47;;;;;;;;;;;20.70;53.10;;;;;;5072543;28;19928;-66
2022/09/30 10:03:02;;;;;;;;;;;20.60;53.40;;;;;;5081239;27;20364;-67
2022/09/30 10:05:30;;;;;;;;;;;20.60;53.60;;;;;;5047287;28;19924;-67
2022/09/30 10:08:15;;;;;;;;;;;20.60;54.60;;;;;;5066283;28;20383;-67
2022/09/30 10:11:02;;;;;;;;;;;20.60;53.60;;;;;;5040099;28;20019;-69
2022/09/30 10:16:29;;;;;;;;;;;20.60;53.90;;;;;;5073709;28;19935;-66
2022/09/30 10:18:55;;;;;;;;;;;20.60;53.80;;;;;;5041743;28;19984;-70
2022/09/30 10:21:23;;;;;;;;;;;20.70;54.00;;;;;;5029326;28;20607;-69
2022/09/30 10:23:48;;;;;;;;;;;20.70;53.50;;;;;;5034797;28;19928;-68
2022/09/30 10:31:36;;;;;;;;;;;20.70;53.70;;;;;;5087191;28;19937;-69
2022/09/30 10:34:09;;;;;;;;;;;20.70;53.50;;;;;;5046386;28;19956;-68
2022/09/30 10:36:36;;;;;;;;;;;20.70;53.50;;;;;;5061917;28;19975;-67
2022/09/30 10:39:05;;;;;;;;;;;20.70;53.40;;;;;;5046135;28;19928;-68
2022/09/30 10:41:31;;;;;;;;;;;20.70;53.40;;;;;;5051591;28;19935;-68
2022/09/30 10:44:00;;;;;;;;;;;20.70;53.40;;;;;;5047840;28;19967;-67
2022/09/30 10:46:28;;;;;;;;;;;20.70;53.40;;;;;;5079429;28;20594;-67
2022/09/30 10:48:54;;;;;;;;;;;20.70;53.40;;;;;;5080900;28;19924;-67
2022/09/30 10:51:24;;;;;;;;;;;20.70;53.30;;;;;;5051388;28;20422;-67
2022/09/30 10:53:49;;;;;;;;;;;20.70;53.40;;;;;;5058298;28;19976;-69
2022/09/30 10:56:30;;;;;;;;;;;20.70;53.60;;;;;;5051075;28;20546;-67
2022/09/30 10:58:57;;;;;;;;;;;20.70;53.70;;;;;;5052054;28;19929;-68
2022/09/30 11:01:31;;;;;;;;;;;20.80;53.70;;;;;;5050810;28;19940;-68
2022/09/30 11:06:46;;;;;;;;;;;20.80;53.70;;;;;;5063016;28;19920;-67
2022/09/30 11:12:01;;;;;;;;;;;20.80;54.00;;;;;;5092570;27;19920;-67
2022/09/30 11:14:30;;;;;;;;;;;20.80;54.10;;;;;;5081505;28;19978;-67
2022/09/30 11:19:56;;;;;;;;;;;20.90;54.40;;;;;;5085170;27;19920;-67
2022/09/30 11:22:26;;;;;;;;;;;20.90;54.40;;;;;;5095590;28;20019;-66
2022/09/30 11:24:52;;;;;;;;;;;20.90;54.70;;;;;;5075378;28;19928;-66
2022/09/30 11:30:18;;;;;;;;;;;20.80;54.40;;;;;;5084024;27;19926;-66
2022/09/30 11:33:04;;;;;;;;;;;20.80;54.20;;;;;;5064264;28;19920;-65
2022/09/30 11:41:21;;;;;;;;;;;20.70;53.90;;;;;;5083443;27;19917;-66
2022/09/30 11:44:06;;;;;;;;;;;20.70;53.80;;;;;;5047216;28;20007;-66
2022/09/30 11:46:40;;;;;;;;;;;20.70;53.80;;;;;;5053228;28;20442;-66
2022/09/30 11:49:13;;;;;;;;;;;20.70;53.70;;;;;;5060844;28;19924;-66
2022/09/30 11:54:31;;;;;;;;;;;20.60;53.60;;;;;;5049670;28;19924;-66
2022/09/30 11:57:04;;;;;;;;;;;20.70;53.70;;;;;;5045805;28;19937;-66
2022/09/30 11:59:35;;;;;;;;;;;20.70;53.70;;;;;;5067665;28;19925;-67
2022/09/30 12:02:03;;;;;;;;;;;20.70;53.70;;;;;;5060619;28;19920;-67
2022/09/30 12:04:31;;;;;;;;;;;20.70;53.80;;;;;;5045952;28;20547;-66
2022/09/30 12:07:00;;;;;;;;;;;20.70;53.80;;;;;;5065461;28;19927;-67
2022/09/30 12:12:07;;;;;;;;;;;20.70;53.70;;;;;;5075044;27;19927;-66
2022/09/30 12:14:35;;;;;;;;;;;20.60;53.60;;;;;;5065739;28;19929;-67
2022/09/30 12:17:03;;;;;;;;;;;20.60;53.70;;;;;;5089338;28;19928;-66
2022/09/30 12:19:33;;;;;;;;;;;20.60;53.70;;;;;;5093872;28;20408;-66
2022/09/30 12:22:18;;;;;;;;;;;20.60;53.60;;;;;;5051902;28;19932;-65
2022/09/30 12:24:44;;;;;;;;;;;20.60;53.60;;;;;;5053715;28;19935;-67
2022/09/30 12:27:30;;;;;;;;;;;20.60;53.60;;;;;;5091511;28;19982;-67
2022/09/30 12:30:31;;;;;;;;;;;20.70;53.60;;;;;;5058278;28;20466;-67
2022/09/30 12:43:50;;;;;;;;;;;20.90;53.20;;;;;;5059669;28;19921;-68
2022/09/30 12:49:14;;;;;;;;;;;21.00;53.10;;;;;;5066376;28;19916;-68
2022/09/30 12:51:42;;;;;;;;;;;21.20;53.10;;;;;;5069626;28;19928;-69
2022/09/30 12:54:18;;;;;;;;;;;21.20;52.90;;;;;;5062509;28;20779;-67
2022/09/30 12:56:45;;;;;;;;;;;21.20;52.90;;;;;;5084263;28;20015;-67
2022/09/30 12:59:12;;;;;;;;;;;21.30;52.90;;;;;;5071104;28;19929;-68
2022/09/30 13:01:38;;;;;;;;;;;21.30;52.90;;;;;;5071956;28;19928;-70
2022/09/30 13:09:57;;;;;;;;;;;21.30;53.10;;;;;;5093409;27;1852512;-70
2022/09/30 13:12:25;;;;;;;;;;;21.20;53.00;;;;;;5132558;27;19954;-70
2022/09/30 13:15:11;;;;;;;;;;;21.30;53.10;;;;;;5145869;27;19930;-70
2022/09/30 13:17:36;;;;;;;;;;;21.30;53.10;;;;;;5137612;27;19926;-76
2022/09/30 13:20:22;;;;;;;;;;;21.30;53.00;;;;;;5136830;27;20057;-70
2022/09/30 13:22:53;;;;;;;;;;;21.30;52.90;;;;;;5154201;27;20294;-66
2022/09/30 13:25:19;;;;;;;;;;;21.20;53.00;;;;;;5138404;27;19919;-67
2022/09/30 13:27:46;;;;;;;;;;;21.20;52.90;;;;;;5138370;27;19923;-66
2022/09/30 13:43:53;;;;;;;;;;;21.60;52.10;;;;;;5066335;28;19916;-67
2022/09/30 13:49:08;;;;;;;;;;;21.50;51.90;;;;;;5059420;28;19923;-67
2022/09/30 13:51:33;;;;;;;;;;;21.50;51.30;;;;;;5061362;28;19925;-67
2022/09/30 13:54:05;;;;;;;;;;;21.50;51.30;;;;;;5056026;28;20508;-66
2022/09/30 13:56:33;;;;;;;;;;;21.60;51.60;;;;;;5058689;28;20339;-66
2022/09/30 14:07:20;;;;;;;;;;;21.60;50.90;;;;;;5135818;27;20407;-66
2022/09/30 14:10:05;;;;;;;;;;;21.50;51.00;;;;;;5123394;28;19920;-67
2022/09/30 14:12:36;;;;;;;;;;;21.50;50.90;;;;;;5118972;28;19942;-67
2022/09/30 14:15:10;;;;;;;;;;;21.50;50.60;;;;;;5104278;28;20455;-67
2022/09/30 14:20:33;;;;;;;;;;;21.40;50.00;;;;;;5137427;27;19925;-67
2022/09/30 14:22:59;;;;;;;;;;;21.30;50.20;;;;;;5120836;27;19928;-68
2022/09/30 14:25:30;;;;;;;;;;;21.30;49.90;;;;;;5132605;27;20430;-66
2022/09/30 14:28:02;;;;;;;;;;;21.30;50.20;;;;;;5132220;27;19920;-67
2022/09/30 14:30:31;;;;;;;;;;;21.30;49.80;;;;;;5124884;27;19926;-66
2022/09/30 14:33:00;;;;;;;;;;;21.30;49.80;;;;;;5124580;27;20002;-67
2022/09/30 14:35:28;;;;;;;;;;;21.20;49.90;;;;;;5133756;27;19983;-65
2022/09/30 14:37:59;;;;;;;;;;;21.20;50.20;;;;;;5122770;27;19920;-64
2022/09/30 14:40:27;;;;;;;;;;;21.10;50.40;;;;;;5134126;27;20021;-65
2022/09/30 14:42:54;;;;;;;;;;;21.10;50.50;;;;;;5129233;27;19924;-66
2022/09/30 14:45:24;;;;;;;;;;;21.10;50.60;;;;;;5132626;27;19920;-66
2022/09/30 14:47:51;;;;;;;;;;;21.10;50.70;;;;;;5131830;27;19924;-65
2022/09/30 14:50:19;;;;;;;;;;;21.10;50.80;;;;;;5134657;27;20489;-65
2022/09/30 14:52:48;;;;;;;;;;;21.10;50.90;;;;;;5124864;27;20327;-64
2022/09/30 14:55:24;;;;;;;;;;;21.00;50.80;;;;;;5128899;27;19984;-66
2022/09/30 14:57:50;;;;;;;;;;;21.00;51.00;;;;;;5133339;27;19919;-65
2022/09/30 15:00:28;;;;;;;;;;;21.00;51.10;;;;;;5123564;27;19927;-65
2022/09/30 15:02:53;;;;;;;;;;;21.00;51.20;;;;;;5127424;27;20383;-67
2022/09/30 15:05:19;;;;;;;;;;;21.00;51.10;;;;;;5124096;27;19924;-66
2022/09/30 15:07:45;;;;;;;;;;;21.00;51.20;;;;;;5122122;27;19923;-66
2022/09/30 15:10:20;;;;;;;;;;;21.00;51.20;;;;;;5129093;27;20006;-66
2022/09/30 15:12:46;;;;;;;;;;;21.00;51.30;;;;;;5152709;27;20285;-65
2022/09/30 15:15:33;;;;;;;;;;;20.90;51.40;;;;;;5136252;27;19927;-66
2022/09/30 15:17:58;;;;;;;;;;;20.90;51.60;;;;;;5137052;27;19919;-67
2022/09/30 15:20:41;;;;;;;;;;;20.90;51.60;;;;;;5123895;27;20072;-69
2022/09/30 15:23:14;;;;;;;;;;;20.90;51.70;;;;;;5136913;27;19923;-68
2022/09/30 15:25:39;;;;;;;;;;;20.90;51.80;;;;;;5134462;27;19920;-68
2022/09/30 15:28:09;;;;;;;;;;;20.90;52.00;;;;;;5136519;27;20276;-67
2022/09/30 15:30:35;;;;;;;;;;;20.90;52.10;;;;;;5127421;27;20002;-67
2022/09/30 15:33:01;;;;;;;;;;;20.90;52.20;;;;;;5118792;27;20346;-67
2022/09/30 15:35:28;;;;;;;;;;;20.90;52.00;;;;;;5108536;27;20161;-67
2022/09/30 15:38:03;;;;;;;;;;;20.90;52.10;;;;;;5106410;28;19927;-68
2022/09/30 15:41:02;;;;;;;;;;;20.80;52.10;;;;;;5092792;28;19920;-67
2022/09/30 15:43:23;;;;;;;;;;;20.90;52.10;;;;;;5093702;28;20347;-68
2022/09/30 15:45:49;;;;;;;;;;;20.80;52.10;;;;;;5093708;28;19920;-68
2022/09/30 15:50:54;;;;;;;;;;;20.70;52.20;;;;;;5126604;27;1893019;-67
2022/09/30 15:56:20;;;;;;;;;;;20.60;52.40;;;;;;5089946;28;19912;-68
2022/09/30 15:58:54;;;;;;;;;;;20.60;52.50;;;;;;5088419;28;19963;-68
2022/09/30 16:01:22;;;;;;;;;;;20.60;52.50;;;;;;5105458;28;19920;-67
2022/09/30 16:03:56;;;;;;;;;;;20.60;52.60;;;;;;5089652;28;20365;-68
2022/09/30 16:06:24;;;;;;;;;;;20.50;52.60;;;;;;5088750;28;19926;-68
2022/09/30 16:09:00;;;;;;;;;;;20.50;52.70;;;;;;5088536;28;19970;-68
2022/09/30 16:11:28;;;;;;;;;;;20.50;52.80;;;;;;5088313;28;19921;-67
2022/09/30 16:13:55;;;;;;;;;;;20.40;52.80;;;;;;5088608;28;20016;-68
2022/09/30 16:16:23;;;;;;;;;;;20.40;52.90;;;;;;5089489;28;19920;-68
2022/09/30 16:18:50;;;;;;;;;;;20.40;53.00;;;;;;5088540;28;19928;-67
2022/09/30 16:21:42;;;;;;;;;;;20.40;53.10;;;;;;5089327;28;19920;-68
2022/09/30 16:27:24;;;;;;;;;;;20.30;53.20;;;;;;5110084;27;20278;-68
2022/09/30 16:29:50;;;;;;;;;;;20.30;53.20;;;;;;5092237;28;19920;-68
2022/09/30 16:32:16;;;;;;;;;;;20.20;53.70;;;;;;5091807;28;20378;-67
2022/09/30 16:34:41;;;;;;;;;;;20.20;53.40;;;;;;5108891;28;19927;-68
2022/09/30 16:37:11;;;;;;;;;;;20.20;53.50;;;;;;5091831;28;19920;-67
2022/09/30 16:39:37;;;;;;;;;;;20.20;53.50;;;;;;5109928;28;20424;-67
2022/09/30 16:42:03;;;;;;;;;;;20.10;53.60;;;;;;5091521;28;19970;-68
2022/09/30 16:44:33;;;;;;;;;;;20.10;53.70;;;;;;5091741;28;19919;-68
2022/09/30 16:46:59;;;;;;;;;;;20.10;53.70;;;;;;5091593;28;19924;-67
2022/09/30 16:49:24;;;;;;;;;;;20.10;53.80;;;;;;5109862;28;19940;-68
2022/09/30 16:51:50;;;;;;;;;;;20.10;53.90;;;;;;5091571;28;19927;-68
2022/09/30 16:54:16;;;;;;;;;;;20.00;53.90;;;;;;5091865;28;19920;-68